Terminal Aerodrome Forecast
Issued by NWS Louisville, KY

Home | Current Version | Previous Version | Text Only | Print | Product List | Glossary On
Versions: 1 2 3 4 5 6 7 8 9 10 11 12 13 14 15 16 17 18 19 20 21 22 23
000
FTUS43 KLMK 141100
TAFSDF
TAF
KSDF 141120Z 1412/1518 20012G18KT P6SM -SHRA BKN060 WS020/21044KT
     FM141400 20015G23KT P6SM VCSH OVC015
     FM141800 24012KT P6SM VCSH OVC025
     FM142200 32011KT P6SM -RA OVC017
     FM150600 32018G25KT P6SM -RASNPL OVC019
     FM150900 33015KT P6SM OVC022=

USA.gov is the U.S. government's official web portal to all federal, state and local government web resources and services.